»·PEaware :: DAL990 KMSP-KGEG

DAL990 :: KMSP-KGEG

FLIGHT INFORMATION

Flight Status: Arrived
Operator:
Delta Air Lines
More flights by this operator :: More flights under this callsign
Pilot: Diana T. (22608)
Aircraft: BOEING 757-200
(B752)
More flights by this aircraft type
Origin: KMSP Minneapolis-St Paul Intl
United States
Destination: KGEG Spokane Intl
United States
More flights between these airports :: More routes between these airports
Route: +SMERF7 SMERF Q146 KIXCO/N0451F380 Q142 MLP HILIE2
File this flight plan on PilotEdge
Remarks: RMK / SIMBRIEF
Altitude:
(Current/Filed)
36,000ft
Speed:
(Current/Filed)
466kts
Departed: 01-Nov-20 08:56 AM
Arrived: 01-Nov-20 11:49 AM
Distance/Time
Traveled:
1018nm/2:52
Distance/Time
To Go:
Arrived

Flight Plot

Page will automatically refresh every two minutes.

Flight plan parsing failed; only flown route is shown


Map Options




Map Legend


Flown Route
Filed Route
Departure Airport
Arrival Airport
Navaid (VOR, NDB)
Fix

Horizontal Profiles

Position Reports

Time Latitude Longitude Heading Altitude Ground
Speed
01-Nov-20 07:49 44.882858 -93.213907 36 850ft 0kts
01-Nov-20 07:50 44.882858 -93.213907 36 850ft 0kts
01-Nov-20 07:51 44.882858 -93.213907 36 850ft 0kts
01-Nov-20 07:52 44.882858 -93.213907 36 850ft 0kts
01-Nov-20 07:54 44.882858 -93.213907 36 850ft 0kts
01-Nov-20 07:55 44.882858 -93.213907 36 849ft 0kts
01-Nov-20 07:56 44.882858 -93.213907 36 849ft 0kts
01-Nov-20 07:57 44.882858 -93.213907 36 849ft 0kts
01-Nov-20 07:58 44.882858 -93.213907 36 849ft 0kts
01-Nov-20 07:59 44.882858 -93.213907 36 849ft 0kts
01-Nov-20 08:00 44.882858 -93.213907 36 849ft 0kts
01-Nov-20 08:01 44.882858 -93.213907 36 849ft 0kts
01-Nov-20 08:02 44.882858 -93.213907 36 849ft 0kts
01-Nov-20 08:03 44.882858 -93.213907 36 849ft 0kts
01-Nov-20 08:04 44.882858 -93.213907 36 849ft 0kts
01-Nov-20 08:05 44.882858 -93.213907 36 849ft 0kts
01-Nov-20 08:06 44.882858 -93.213907 36 849ft 0kts
01-Nov-20 08:07 44.882858 -93.213907 36 849ft 0kts
01-Nov-20 08:08 44.882858 -93.213907 36 849ft 0kts
01-Nov-20 08:09 44.882858 -93.213907 36 849ft 0kts
01-Nov-20 08:10 44.882858 -93.213907 36 849ft 0kts
01-Nov-20 08:11 44.882858 -93.213907 36 849ft 0kts
01-Nov-20 08:11 44.882858 -93.213907 36 849ft 0kts
01-Nov-20 08:13 44.882858 -93.213907 36 849ft 0kts
01-Nov-20 08:13 44.882858 -93.213907 36 849ft 0kts
01-Nov-20 08:15 44.882858 -93.213907 36 849ft 0kts
01-Nov-20 08:15 44.882858 -93.213907 36 849ft 0kts
01-Nov-20 08:17 44.882858 -93.213907 36 849ft 0kts
01-Nov-20 08:17 44.882858 -93.213907 36 849ft 0kts
01-Nov-20 08:18 44.882858 -93.213907 36 849ft 0kts
01-Nov-20 08:19 44.882858 -93.213907 36 849ft 0kts
01-Nov-20 08:20 44.882858 -93.213907 36 849ft 0kts
01-Nov-20 08:21 44.882858 -93.213907 36 849ft 0kts
01-Nov-20 08:22 44.882858 -93.213907 36 849ft 0kts
01-Nov-20 08:23 44.882858 -93.213907 36 849ft 0kts
01-Nov-20 08:24 44.882858 -93.213907 36 849ft 0kts
01-Nov-20 08:25 44.882858 -93.213907 36 849ft 0kts
01-Nov-20 08:26 44.882858 -93.213907 36 849ft 0kts
01-Nov-20 08:27 44.882858 -93.213907 36 849ft 0kts
01-Nov-20 08:28 44.882858 -93.213907 36 849ft 0kts
01-Nov-20 08:29 44.882858 -93.213907 36 849ft 0kts
01-Nov-20 08:30 44.882858 -93.213907 36 849ft 0kts
01-Nov-20 08:31 44.882858 -93.213907 36 849ft 0kts
01-Nov-20 08:32 44.882858 -93.213907 36 849ft 0kts
01-Nov-20 08:33 44.882858 -93.213907 36 849ft 0kts
01-Nov-20 08:34 44.882858 -93.213907 36 849ft 0kts
01-Nov-20 08:35 44.882858 -93.213907 36 849ft 0kts
01-Nov-20 08:36 44.882858 -93.213907 36 849ft 0kts
01-Nov-20 08:37 44.882858 -93.213907 36 849ft 0kts
01-Nov-20 08:38 44.882858 -93.213907 36 849ft 0kts
01-Nov-20 08:39 44.882858 -93.213907 36 849ft 0kts
01-Nov-20 08:40 44.882858 -93.213907 36 849ft 0kts
01-Nov-20 08:41 44.882857 -93.213907 36 849ft 0kts
01-Nov-20 08:42 44.882458 -93.214318 36 849ft 2kts
01-Nov-20 08:43 44.882017 -93.214897 63 849ft 2kts
01-Nov-20 08:44 44.881970 -93.215730 109 849ft 2kts
01-Nov-20 08:45 44.882053 -93.215970 122 849ft 0kts
01-Nov-20 08:46 44.882053 -93.215970 122 849ft 0kts
01-Nov-20 08:47 44.881533 -93.215051 142 849ft 10kts
01-Nov-20 08:48 44.879668 -93.212425 121 849ft 11kts
01-Nov-20 08:49 44.877978 -93.208506 121 849ft 13kts
01-Nov-20 08:50 44.876156 -93.204313 121 849ft 10kts
01-Nov-20 08:51 44.875060 -93.201776 121 849ft 6kts
01-Nov-20 08:52 44.874605 -93.200878 146 849ft 0kts
01-Nov-20 08:53 44.874490 -93.200783 155 849ft 3kts
01-Nov-20 08:54 44.874322 -93.203039 301 849ft 16kts
01-Nov-20 08:55 44.892240 -93.244718 301 2295ft 172kts
01-Nov-20 08:56 44.916945 -93.310581 300 3806ft 216kts
01-Nov-20 08:57 44.941094 -93.389999 301 6292ft 223kts
01-Nov-20 08:58 44.965948 -93.471482 301 8715ft 228kts
01-Nov-20 08:59 44.991749 -93.555930 301 10259ft 267kts
01-Nov-20 09:00 45.023981 -93.662749 300 12127ft 300kts
01-Nov-20 09:01 45.057234 -93.773140 301 14540ft 303kts
01-Nov-20 09:02 45.090309 -93.884402 299 16586ft 310kts
01-Nov-20 09:03 45.118695 -94.000913 298 18526ft 316kts
01-Nov-20 09:04 45.147968 -94.121239 297 20313ft 325kts
01-Nov-20 09:05 45.177571 -94.243537 297 22032ft 332kts
01-Nov-20 09:06 45.207264 -94.366950 297 23602ft 339kts
01-Nov-20 09:07 45.238119 -94.496005 298 25125ft 345kts
01-Nov-20 09:08 45.269511 -94.627992 298 26550ft 351kts
01-Nov-20 09:09 45.300872 -94.760716 298 27909ft 357kts
01-Nov-20 09:10 45.333027 -94.897591 298 29217ft 363kts
01-Nov-20 09:11 45.364837 -95.033819 299 30397ft 368kts
01-Nov-20 09:12 45.397614 -95.175063 299 31485ft 375kts
01-Nov-20 09:13 45.430441 -95.317621 299 32950ft 373kts
01-Nov-20 09:14 45.462855 -95.459191 299 34345ft 372kts
01-Nov-20 09:15 45.494212 -95.597010 298 35751ft 369kts
01-Nov-20 09:16 45.526048 -95.737803 297 36495ft 371kts
01-Nov-20 09:17 45.557731 -95.878997 297 36483ft 369kts
01-Nov-20 09:18 45.587090 -96.010588 297 36469ft 368kts
01-Nov-20 09:19 45.618220 -96.150996 298 36505ft 368kts
01-Nov-20 09:20 45.648652 -96.289192 298 36540ft 368kts
01-Nov-20 09:21 45.679106 -96.428402 298 36538ft 368kts
01-Nov-20 09:22 45.709668 -96.568975 297 36534ft 367kts
01-Nov-20 09:23 45.740032 -96.709692 297 36545ft 366kts
01-Nov-20 09:24 45.769655 -96.847889 297 36542ft 366kts
01-Nov-20 09:25 45.799478 -96.987896 297 36538ft 366kts
01-Nov-20 09:26 45.828791 -97.126521 297 36525ft 365kts
01-Nov-20 09:27 45.858002 -97.265544 297 36516ft 365kts
01-Nov-20 09:28 45.886636 -97.402760 297 36513ft 365kts
01-Nov-20 09:29 45.915475 -97.541913 297 36511ft 365kts
01-Nov-20 09:30 45.938808 -97.686083 293 36520ft 370kts
01-Nov-20 09:31 45.960465 -97.828194 293 36518ft 369kts
01-Nov-20 09:32 45.982248 -97.973073 293 36514ft 369kts
01-Nov-20 09:33 46.003796 -98.117817 293 36506ft 368kts
01-Nov-20 09:34 46.025133 -98.262592 293 36501ft 368kts
01-Nov-20 09:35 46.046470 -98.408680 293 36499ft 369kts
01-Nov-20 09:36 46.067557 -98.554413 293 36497ft 370kts
01-Nov-20 09:37 46.088321 -98.699296 292 36507ft 373kts
01-Nov-20 09:38 46.109096 -98.845641 292 36530ft 375kts
01-Nov-20 09:39 46.129957 -98.994109 292 36516ft 376kts
01-Nov-20 09:40 46.150583 -99.142380 292 36500ft 376kts
01-Nov-20 09:41 46.171109 -99.291409 292 36498ft 377kts
01-Nov-20 09:42 46.191462 -99.440724 291 36496ft 377kts
01-Nov-20 09:43 46.211565 -99.589719 291 36492ft 378kts
01-Nov-20 09:44 46.231127 -99.736259 290 36502ft 380kts
01-Nov-20 09:45 46.250781 -99.884987 290 36498ft 380kts
01-Nov-20 09:46 46.270165 -100.033217 290 36485ft 381kts
01-Nov-20 09:47 46.289830 -100.185265 290 36477ft 381kts
01-Nov-20 09:48 46.309290 -100.337321 290 36475ft 382kts
01-Nov-20 09:50 46.328713 -100.490844 290 36473ft 383kts
01-Nov-20 09:51 46.347847 -100.643766 290 36471ft 383kts
01-Nov-20 09:52 46.366319 -100.793135 289 36480ft 385kts
01-Nov-20 09:53 46.383299 -100.948000 286 36464ft 389kts
01-Nov-20 09:54 46.395103 -101.104908 285 36429ft 390kts
01-Nov-20 09:55 46.406636 -101.262278 285 36428ft 391kts
01-Nov-20 09:56 46.418008 -101.420646 285 36425ft 393kts
01-Nov-20 09:57 46.429189 -101.579533 284 36424ft 394kts
01-Nov-20 09:58 46.440039 -101.736891 284 36432ft 395kts
01-Nov-20 09:59 46.450864 -101.897194 283 36430ft 396kts
01-Nov-20 10:00 46.461461 -102.057333 283 36417ft 397kts
01-Nov-20 10:01 46.471897 -102.218805 283 36359ft 397kts
01-Nov-20 10:02 46.482066 -102.379483 283 36343ft 397kts
01-Nov-20 10:03 46.492047 -102.540917 283 36341ft 397kts
01-Nov-20 10:04 46.501781 -102.701983 282 36349ft 400kts
01-Nov-20 10:05 46.511299 -102.863280 282 36347ft 400kts
01-Nov-20 10:06 46.520629 -103.025450 282 36346ft 400kts
01-Nov-20 10:07 46.529781 -103.188418 282 36352ft 402kts
01-Nov-20 10:07 46.537212 -103.324070 282 36351ft 401kts
01-Nov-20 10:09 46.547449 -103.515897 281 36349ft 403kts
01-Nov-20 10:09 46.554477 -103.651254 281 36348ft 404kts
01-Nov-20 10:10 46.562622 -103.812180 281 36356ft 405kts
01-Nov-20 10:11 46.570685 -103.976150 280 36354ft 405kts
01-Nov-20 10:12 46.578616 -104.142268 280 36352ft 407kts
01-Nov-20 10:13 46.586260 -104.307420 280 36351ft 408kts
01-Nov-20 10:14 46.593626 -104.471843 280 36349ft 408kts
01-Nov-20 10:15 46.602421 -104.637185 286 36352ft 402kts
01-Nov-20 10:16 46.620706 -104.787360 284 36357ft 416kts
01-Nov-20 10:17 46.640249 -104.961802 284 37378ft 417kts
01-Nov-20 10:18 46.658694 -105.130364 284 38282ft 416kts
01-Nov-20 10:19 46.676267 -105.293334 284 38351ft 416kts
01-Nov-20 10:20 46.694137 -105.461460 284 38351ft 418kts
01-Nov-20 10:21 46.711439 -105.626658 284 38350ft 418kts
01-Nov-20 10:22 46.724560 -105.753507 283 38355ft 419kts
01-Nov-20 10:23 46.742088 -105.925290 283 38349ft 418kts
01-Nov-20 10:24 46.761104 -106.114589 283 38342ft 422kts
01-Nov-20 10:25 46.777778 -106.283463 283 38336ft 421kts
01-Nov-20 10:26 46.794378 -106.454174 283 38330ft 421kts
01-Nov-20 10:27 46.810585 -106.623537 283 38324ft 421kts
01-Nov-20 10:28 46.820765 -106.731271 282 38326ft 422kts
01-Nov-20 10:29 46.838137 -106.917799 282 38320ft 423kts
01-Nov-20 10:30 46.856664 -107.120542 282 38318ft 424kts
01-Nov-20 10:31 46.871853 -107.289904 282 38315ft 424kts
01-Nov-20 10:32 46.886952 -107.461200 282 38313ft 424kts
01-Nov-20 10:33 46.901673 -107.631139 282 38312ft 425kts
01-Nov-20 10:34 46.912838 -107.762054 281 38317ft 425kts
01-Nov-20 10:35 46.924540 -107.901258 281 38316ft 425kts
01-Nov-20 10:36 46.937660 -108.059697 281 38317ft 426kts
01-Nov-20 10:37 46.955181 -108.275973 281 38323ft 426kts
01-Nov-20 10:38 46.969673 -108.458941 281 38323ft 426kts
01-Nov-20 10:39 46.982977 -108.630242 281 38320ft 426kts
01-Nov-20 10:40 46.995542 -108.795070 280 38325ft 426kts
01-Nov-20 10:41 47.007999 -108.961810 280 38324ft 426kts
01-Nov-20 10:42 47.018249 -109.101591 280 38328ft 426kts
01-Nov-20 10:43 47.032104 -109.294410 280 38331ft 426kts
01-Nov-20 10:44 47.043942 -109.462962 280 38330ft 426kts
01-Nov-20 10:45 47.056449 -109.629215 283 38330ft 424kts
01-Nov-20 10:46 47.073875 -109.797928 282 38333ft 425kts
01-Nov-20 10:47 47.091070 -109.968356 282 38334ft 425kts
01-Nov-20 10:48 47.107580 -110.134650 282 38356ft 426kts
01-Nov-20 10:49 47.120725 -110.268896 282 38359ft 426kts
01-Nov-20 10:50 47.135303 -110.419749 282 38357ft 426kts
01-Nov-20 10:51 47.152760 -110.603303 282 38356ft 427kts
01-Nov-20 10:52 47.166797 -110.753307 281 38361ft 427kts
01-Nov-20 10:53 47.183971 -110.939808 281 38361ft 428kts
01-Nov-20 10:54 47.202236 -111.142022 281 38368ft 428kts
01-Nov-20 10:55 47.217736 -111.316843 281 38367ft 429kts
01-Nov-20 10:56 47.232860 -111.490589 281 38366ft 428kts
01-Nov-20 10:57 47.247270 -111.659075 280 38366ft 428kts
01-Nov-20 10:58 47.259991 -111.810394 280 38369ft 428kts
01-Nov-20 10:59 47.275666 -112.000227 280 38404ft 428kts
01-Nov-20 11:00 47.289735 -112.174020 280 38430ft 428kts
01-Nov-20 11:01 47.303544 -112.347993 280 38430ft 429kts
01-Nov-20 11:02 47.317162 -112.522961 280 38428ft 428kts
01-Nov-20 11:03 47.329272 -112.681609 279 38433ft 429kts
01-Nov-20 11:04 47.340960 -112.837550 279 38435ft 429kts
01-Nov-20 11:05 47.351553 -113.021895 277 38476ft 429kts
01-Nov-20 11:06 47.360694 -113.201818 277 38484ft 429kts
01-Nov-20 11:07 47.369265 -113.375637 277 38482ft 429kts
01-Nov-20 11:08 47.377654 -113.551230 277 38479ft 429kts
01-Nov-20 11:09 47.384922 -113.708197 276 38483ft 429kts
01-Nov-20 11:10 47.392990 -113.888086 276 38480ft 428kts
01-Nov-20 11:11 47.400690 -114.065885 276 38481ft 428kts
01-Nov-20 11:12 47.407963 -114.240354 276 38492ft 428kts
01-Nov-20 11:13 47.414995 -114.415195 276 38492ft 429kts
01-Nov-20 11:14 47.421811 -114.591439 276 38490ft 429kts
01-Nov-20 11:15 47.427434 -114.742574 275 38492ft 427kts
01-Nov-20 11:16 47.433773 -114.919796 275 37424ft 402kts
01-Nov-20 11:17 47.439423 -115.084221 274 35500ft 406kts
01-Nov-20 11:18 47.444931 -115.251791 274 33421ft 414kts
01-Nov-20 11:19 47.450221 -115.420408 273 31410ft 414kts
01-Nov-20 11:20 47.455281 -115.589664 273 29449ft 411kts
01-Nov-20 11:21 47.463186 -115.746794 275 27651ft 396kts
01-Nov-20 11:22 47.473107 -115.906979 275 25972ft 384kts
01-Nov-20 11:23 47.481945 -116.053298 275 24654ft 375kts
01-Nov-20 11:24 47.490956 -116.206023 275 23384ft 366kts
01-Nov-20 11:25 47.499721 -116.357978 275 22116ft 359kts
01-Nov-20 11:26 47.508019 -116.505152 275 20339ft 351kts
01-Nov-20 11:27 47.515812 -116.646645 275 18653ft 342kts
01-Nov-20 11:28 47.523238 -116.784530 274 17065ft 335kts
01-Nov-20 11:29 47.530375 -116.920053 274 15492ft 328kts
01-Nov-20 11:30 47.537268 -117.054106 274 13929ft 322kts
01-Nov-20 11:31 47.538589 -117.185012 267 13001ft 318kts
01-Nov-20 11:32 47.534071 -117.312705 267 12627ft 289kts
01-Nov-20 11:33 47.530256 -117.424330 267 11898ft 261kts
01-Nov-20 11:34 47.527238 -117.532593 267 10547ft 260kts
01-Nov-20 11:35 47.525730 -117.638257 267 9243ft 259kts
01-Nov-20 11:36 47.525253 -117.738703 267 8129ft 254kts
01-Nov-20 11:37 47.524843 -117.841813 267 7593ft 225kts
01-Nov-20 11:38 47.507909 -117.923182 230 7120ft 193kts
01-Nov-20 11:39 47.467860 -117.930659 132 6697ft 178kts
01-Nov-20 11:40 47.444482 -117.869023 90 6129ft 181kts
01-Nov-20 11:41 47.456027 -117.800138 57 5611ft 160kts
01-Nov-20 11:42 47.483862 -117.748287 52 5656ft 158kts
01-Nov-20 11:44 47.511189 -117.700178 50 5306ft 143kts
01-Nov-20 11:45 47.537902 -117.658357 45 4479ft 137kts
01-Nov-20 11:46 47.564406 -117.618879 45 3801ft 129kts
01-Nov-20 11:47 47.589681 -117.581098 45 3062ft 127kts
01-Nov-20 11:48 47.614849 -117.542948 45 2382ft 118kts
01-Nov-20 11:49 47.624448 -117.530830 15 2358ft 14kts
01-Nov-20 11:50 47.624690 -117.530741 11 2358ft 0kts
01-Nov-20 11:51 47.625167 -117.530891 307 2357ft 3kts
01-Nov-20 11:52 47.624374 -117.532574 225 2359ft 6kts
01-Nov-20 11:53 47.623114 -117.535535 301 2363ft 10kts
01-Nov-20 11:54 47.624057 -117.537235 25 2364ft 2kts
01-Nov-20 11:55 47.624208 -117.536687 80 2364ft 0kts
01-Nov-20 11:56 47.624208 -117.536687 80 2364ft 0kts
01-Nov-20 11:57 47.624208 -117.536687 80 2364ft 0kts
01-Nov-20 11:57 47.624208 -117.536687 80 2364ft 0kts
01-Nov-20 11:59 47.624208 -117.536687 80 2364ft 0kts
01-Nov-20 11:59 47.624208 -117.536687 80 2364ft 0kts
01-Nov-20 12:01 47.624208 -117.536687 80 2364ft 0kts
01-Nov-20 12:01 47.624208 -117.536687 80 2364ft 0kts
01-Nov-20 12:03 47.624208 -117.536687 80 2364ft 0kts

Navigation Log

Ident Type
Flight plan parsing failed, navigation log unavailable